Time;durP1;ratioP1;P1;durP2;ratioP2;P2;SDS_P1;SDS_P2;PMS_P1;PMS_P2;Temp;Humidity;BMP_temperature;BMP_pressure;BME280_temperature;BME280_humidity;BME280_pressure;Samples;Min_cycle;Max_cycle;Signal;HPM_P1;HPM_P2
2023/03/31 00:01:51;;;;;;;;;;;20.50;79.60;;;;;;5099259;28;20011;-68
2023/03/31 00:04:22;;;;;;;;;;;20.60;79.80;;;;;;5097835;28;19911;-68
2023/03/31 00:06:52;;;;;;;;;;;20.60;79.60;;;;;;5097157;28;19920;-69
2023/03/31 00:09:20;;;;;;;;;;;20.70;80.10;;;;;;5097383;28;19916;-69
2023/03/31 00:11:48;;;;;;;;;;;20.80;80.40;;;;;;5098330;28;19912;-69
2023/03/31 00:14:16;;;;;;;;;;;20.90;80.00;;;;;;5098497;27;20376;-68
2023/03/31 00:16:43;;;;;;;;;;;21.00;78.80;;;;;;5080138;28;19912;-68
2023/03/31 00:19:16;;;;;;;;;;;21.10;79.50;;;;;;5098217;28;19919;-66
2023/03/31 00:21:50;;;;;;;;;;;21.20;78.60;;;;;;5098392;28;20292;-68
2023/03/31 00:24:17;;;;;;;;;;;21.20;77.20;;;;;;5097337;28;19904;-69
2023/03/31 00:26:44;;;;;;;;;;;21.30;77.80;;;;;;5098657;28;20288;-68
2023/03/31 00:29:12;;;;;;;;;;;21.50;78.20;;;;;;5095799;28;19918;-68
2023/03/31 00:31:38;;;;;;;;;;;21.50;77.40;;;;;;5093379;28;19919;-69
2023/03/31 00:34:05;;;;;;;;;;;21.50;77.00;;;;;;5096347;28;19955;-68
2023/03/31 00:36:35;;;;;;;;;;;21.50;76.20;;;;;;5099295;28;20008;-68
2023/03/31 00:39:07;;;;;;;;;;;21.50;76.60;;;;;;5090442;28;20686;-68
2023/03/31 00:41:35;;;;;;;;;;;21.60;76.10;;;;;;5099435;28;19911;-72
2023/03/31 00:44:11;;;;;;;;;;;21.70;75.50;;;;;;5099508;27;20018;-70
2023/03/31 00:46:41;;;;;;;;;;;21.70;73.60;;;;;;5099096;28;20189;-67
2023/03/31 00:49:13;;;;;;;;;;;21.80;73.50;;;;;;5091860;28;19912;-69
2023/03/31 00:51:40;;;;;;;;;;;21.90;74.60;;;;;;5098758;28;19908;-67
2023/03/31 00:54:07;;;;;;;;;;;21.90;74.20;;;;;;5096060;28;19911;-69
2023/03/31 00:56:39;;;;;;;;;;;22.00;74.40;;;;;;5098845;28;19911;-67
2023/03/31 00:59:08;;;;;;;;;;;22.10;74.60;;;;;;5096980;28;20356;-69
2023/03/31 01:01:35;;;;;;;;;;;22.30;75.50;;;;;;5099122;28;19922;-67
2023/03/31 01:04:04;;;;;;;;;;;22.50;75.30;;;;;;5098458;28;19939;-69
2023/03/31 01:06:31;;;;;;;;;;;22.60;72.80;;;;;;5097770;28;19916;-68
2023/03/31 01:08:58;;;;;;;;;;;22.70;73.40;;;;;;5084365;28;19909;-68
2023/03/31 01:11:26;;;;;;;;;;;22.80;71.10;;;;;;5076848;28;20428;-70
2023/03/31 01:13:55;;;;;;;;;;;23.00;73.00;;;;;;5098699;28;19912;-69
2023/03/31 01:16:21;;;;;;;;;;;23.10;71.90;;;;;;5095975;28;19934;-67
2023/03/31 01:18:48;;;;;;;;;;;23.20;70.30;;;;;;5085437;28;19909;-69
2023/03/31 01:21:38;;;;;;;;;;;23.20;69.30;;;;;;5076610;28;19912;-67
2023/03/31 01:24:14;;;;;;;;;;;23.30;69.30;;;;;;5060063;28;19912;-69
2023/03/31 01:26:59;;;;;;;;;;;23.50;67.90;;;;;;5078462;28;19960;-67
2023/03/31 01:29:31;;;;;;;;;;;23.60;69.50;;;;;;5095005;28;19979;-69
2023/03/31 01:32:33;;;;;;;;;;;23.70;68.70;;;;;;5098646;28;19938;-69
2023/03/31 01:35:00;;;;;;;;;;;23.90;69.00;;;;;;4996097;28;19937;-69
2023/03/31 01:37:27;;;;;;;;;;;24.10;67.80;;;;;;5074764;28;19943;-68
2023/03/31 01:40:07;;;;;;;;;;;24.20;67.10;;;;;;5098324;28;19919;-70
2023/03/31 01:42:56;;;;;;;;;;;24.30;66.30;;;;;;5097226;28;20163;-69
2023/03/31 01:45:33;;;;;;;;;;;24.40;65.90;;;;;;5096216;28;20377;-70
2023/03/31 01:48:11;;;;;;;;;;;24.50;65.70;;;;;;5092929;28;20361;-70
2023/03/31 01:50:45;;;;;;;;;;;24.70;67.20;;;;;;5098225;28;19937;-68
2023/03/31 01:53:18;;;;;;;;;;;24.80;65.80;;;;;;5097682;28;20268;-69
2023/03/31 01:55:52;;;;;;;;;;;25.00;65.30;;;;;;5097283;28;20370;-69
2023/03/31 01:58:32;;;;;;;;;;;25.20;65.60;;;;;;5096640;28;19931;-69
2023/03/31 02:01:02;;;;;;;;;;;25.30;67.20;;;;;;5098631;28;19908;-68
2023/03/31 02:03:41;;;;;;;;;;;25.50;64.90;;;;;;5078555;28;19969;-70
2023/03/31 02:06:17;;;;;;;;;;;25.60;64.20;;;;;;5098579;28;19923;-68
2023/03/31 02:08:45;;;;;;;;;;;25.70;66.20;;;;;;5089433;28;19907;-70
2023/03/31 02:11:13;;;;;;;;;;;25.90;66.90;;;;;;5093249;28;19919;-67
2023/03/31 02:13:43;;;;;;;;;;;26.20;67.90;;;;;;5095524;28;20592;-69
2023/03/31 02:16:13;;;;;;;;;;;26.30;64.20;;;;;;5098047;28;19908;-68
2023/03/31 02:18:40;;;;;;;;;;;26.30;63.90;;;;;;5095789;28;19908;-69
2023/03/31 02:21:07;;;;;;;;;;;26.60;66.60;;;;;;5097845;28;19908;-69
2023/03/31 02:23:36;;;;;;;;;;;26.90;65.00;;;;;;5078312;28;20296;-70
2023/03/31 02:26:05;;;;;;;;;;;27.00;64.30;;;;;;5097380;28;20343;-68
2023/03/31 02:28:32;;;;;;;;;;;27.30;67.30;;;;;;5078830;28;19908;-68
2023/03/31 02:30:59;;;;;;;;;;;27.30;61.30;;;;;;5097296;28;19959;-67
2023/03/31 02:33:25;;;;;;;;;;;27.30;60.90;;;;;;5095502;28;19908;-68
2023/03/31 02:35:52;;;;;;;;;;;27.30;60.70;;;;;;5095342;28;19923;-70
2023/03/31 02:38:19;;;;;;;;;;;27.30;61.10;;;;;;5099383;28;20037;-69
2023/03/31 02:40:46;;;;;;;;;;;27.50;60.50;;;;;;5095397;28;20463;-70
2023/03/31 02:43:13;;;;;;;;;;;27.70;60.10;;;;;;5097058;28;19916;-68
2023/03/31 02:45:48;;;;;;;;;;;28.10;60.20;;;;;;5094175;28;19955;-70
2023/03/31 02:48:17;;;;;;;;;;;28.50;60.10;;;;;;5098106;28;19981;-67
2023/03/31 02:51:02;;;;;;;;;;;29.30;59.30;;;;;;5095453;28;19908;-67
2023/03/31 02:53:31;;;;;;;;;;;30.00;58.00;;;;;;5097452;28;19957;-68
2023/03/31 02:56:02;;;;;;;;;;;30.70;56.90;;;;;;5095876;28;20017;-70
2023/03/31 02:58:45;;;;;;;;;;;31.60;56.50;;;;;;5098483;28;19904;-68
2023/03/31 03:01:27;;;;;;;;;;;32.60;54.10;;;;;;5080520;28;19915;-69
2023/03/31 03:03:59;;;;;;;;;;;33.90;55.40;;;;;;5096271;28;19915;-70
2023/03/31 03:06:52;;;;;;;;;;;34.80;52.80;;;;;;5100362;28;19923;-69
2023/03/31 03:09:31;;;;;;;;;;;35.40;51.90;;;;;;5102584;28;19916;-68
2023/03/31 03:12:08;;;;;;;;;;;36.20;50.30;;;;;;5099523;28;20007;-69
2023/03/31 03:14:48;;;;;;;;;;;36.80;50.80;;;;;;5102275;28;19908;-68
2023/03/31 03:17:22;;;;;;;;;;;37.40;51.80;;;;;;5102033;28;20360;-70
2023/03/31 03:20:00;;;;;;;;;;;37.50;49.90;;;;;;5099438;28;19908;-69
2023/03/31 03:22:27;;;;;;;;;;;38.50;50.90;;;;;;5102131;28;19908;-69
2023/03/31 03:24:54;;;;;;;;;;;38.20;48.60;;;;;;5099350;28;19908;-70
2023/03/31 03:27:21;;;;;;;;;;;38.60;48.80;;;;;;5101898;28;20085;-69
2023/03/31 03:29:48;;;;;;;;;;;38.80;47.40;;;;;;5099012;28;19908;-70
2023/03/31 03:32:14;;;;;;;;;;;39.50;48.70;;;;;;5101955;28;19915;-69
2023/03/31 03:34:41;;;;;;;;;;;40.10;49.70;;;;;;5101435;28;19929;-70
2023/03/31 03:37:08;;;;;;;;;;;40.20;46.50;;;;;;5100090;28;20016;-68
2023/03/31 03:39:34;;;;;;;;;;;40.00;47.10;;;;;;5083158;28;19993;-69
2023/03/31 03:42:01;;;;;;;;;;;40.30;48.10;;;;;;5098918;28;20325;-69
2023/03/31 03:44:28;;;;;;;;;;;40.40;45.80;;;;;;5101891;28;19908;-68
2023/03/31 03:46:54;;;;;;;;;;;40.30;46.10;;;;;;5099144;28;20074;-67
2023/03/31 03:49:21;;;;;;;;;;;40.90;46.90;;;;;;5101373;28;19912;-67
2023/03/31 03:51:48;;;;;;;;;;;40.60;46.20;;;;;;5099868;28;19968;-67
2023/03/31 03:54:14;;;;;;;;;;;40.60;47.70;;;;;;5101051;28;20451;-67
2023/03/31 03:56:41;;;;;;;;;;;41.20;47.00;;;;;;5101358;28;20463;-67
2023/03/31 03:59:08;;;;;;;;;;;41.40;46.40;;;;;;5098631;28;19918;-68
2023/03/31 04:01:34;;;;;;;;;;;40.70;46.80;;;;;;5101378;28;20006;-68
2023/03/31 04:04:01;;;;;;;;;;;39.80;47.30;;;;;;5098651;28;19908;-69
2023/03/31 04:06:28;;;;;;;;;;;40.00;47.40;;;;;;5101213;28;20045;-68
2023/03/31 04:08:54;;;;;;;;;;;40.30;47.80;;;;;;5097635;28;19911;-68
2023/03/31 04:11:21;;;;;;;;;;;40.70;46.20;;;;;;5100555;28;19907;-68
2023/03/31 04:13:48;;;;;;;;;;;40.60;45.80;;;;;;5100760;28;19915;-68
2023/03/31 04:16:15;;;;;;;;;;;40.70;46.50;;;;;;5099482;28;19907;-67
2023/03/31 04:18:42;;;;;;;;;;;41.10;47.10;;;;;;5100346;28;20357;-68
2023/03/31 04:21:11;;;;;;;;;;;41.60;45.30;;;;;;5096884;28;19908;-71
2023/03/31 04:23:47;;;;;;;;;;;40.80;46.80;;;;;;5081607;28;19968;-69
2023/03/31 04:26:14;;;;;;;;;;;40.40;46.60;;;;;;5097032;28;19916;-68
2023/03/31 04:28:49;;;;;;;;;;;39.70;46.90;;;;;;5099969;28;20002;-69
2023/03/31 04:31:23;;;;;;;;;;;40.30;46.00;;;;;;5098358;28;20033;-68
2023/03/31 04:33:51;;;;;;;;;;;40.60;46.90;;;;;;5099890;28;19918;-69
2023/03/31 04:36:17;;;;;;;;;;;40.90;46.30;;;;;;5099097;28;19977;-68
2023/03/31 04:38:53;;;;;;;;;;;40.30;46.20;;;;;;5099819;28;20374;-68
2023/03/31 04:41:20;;;;;;;;;;;40.10;46.60;;;;;;5096755;28;20382;-67
2023/03/31 04:43:47;;;;;;;;;;;40.30;45.80;;;;;;5098878;28;19915;-67
2023/03/31 04:46:14;;;;;;;;;;;40.90;45.50;;;;;;5097260;28;20318;-68
2023/03/31 04:48:41;;;;;;;;;;;41.30;46.90;;;;;;5099858;28;19912;-70
2023/03/31 04:51:08;;;;;;;;;;;41.30;45.20;;;;;;5097455;28;19907;-67
2023/03/31 04:53:35;;;;;;;;;;;41.30;45.40;;;;;;5100371;28;19908;-67
2023/03/31 04:56:02;;;;;;;;;;;41.30;45.10;;;;;;5097394;28;20329;-68
2023/03/31 04:58:29;;;;;;;;;;;41.90;44.60;;;;;;5099481;28;19908;-67
2023/03/31 05:00:56;;;;;;;;;;;41.90;44.60;;;;;;5099573;28;19914;-68
2023/03/31 05:03:22;;;;;;;;;;;40.50;45.10;;;;;;5098557;28;19915;-67
2023/03/31 05:05:49;;;;;;;;;;;39.70;46.50;;;;;;5100307;28;19922;-67
2023/03/31 05:08:15;;;;;;;;;;;39.90;45.80;;;;;;5097796;28;19998;-69
2023/03/31 05:10:42;;;;;;;;;;;40.70;45.80;;;;;;5099390;28;20419;-69
2023/03/31 05:13:09;;;;;;;;;;;40.50;45.40;;;;;;5099193;28;19908;-68
2023/03/31 05:15:39;;;;;;;;;;;39.80;45.30;;;;;;5093750;28;19923;-67
2023/03/31 05:18:07;;;;;;;;;;;39.70;46.50;;;;;;5099377;28;19908;-68
2023/03/31 05:20:33;;;;;;;;;;;40.40;45.50;;;;;;5096500;28;20209;-69
2023/03/31 05:23:00;;;;;;;;;;;40.80;45.80;;;;;;5099410;28;20011;-66
2023/03/31 05:25:31;;;;;;;;;;;41.00;46.60;;;;;;5096771;28;19916;-67
2023/03/31 05:27:58;;;;;;;;;;;40.60;46.20;;;;;;5099622;28;19907;-68
2023/03/31 05:30:25;;;;;;;;;;;40.20;46.00;;;;;;5095790;28;20268;-69
2023/03/31 05:32:52;;;;;;;;;;;40.10;45.90;;;;;;5100549;28;20326;-68
2023/03/31 05:35:19;;;;;;;;;;;40.60;46.30;;;;;;5097504;28;19914;-68
2023/03/31 05:37:46;;;;;;;;;;;40.20;46.30;;;;;;5098707;28;20427;-67
2023/03/31 05:40:12;;;;;;;;;;;40.30;46.20;;;;;;5098935;28;20010;-68
2023/03/31 05:42:40;;;;;;;;;;;40.70;45.20;;;;;;5095948;28;19922;-67
2023/03/31 05:45:07;;;;;;;;;;;40.90;44.90;;;;;;5099168;28;20396;-69
2023/03/31 05:47:34;;;;;;;;;;;41.00;44.70;;;;;;5096240;28;19911;-67
2023/03/31 05:50:02;;;;;;;;;;;40.40;45.20;;;;;;5099844;28;19908;-66
2023/03/31 05:52:31;;;;;;;;;;;39.90;46.10;;;;;;5095571;28;19908;-67
2023/03/31 05:54:58;;;;;;;;;;;38.90;46.20;;;;;;5098618;28;19908;-68
2023/03/31 05:57:24;;;;;;;;;;;37.20;47.90;;;;;;5096016;28;19908;-69
2023/03/31 05:59:51;;;;;;;;;;;36.70;49.10;;;;;;5099667;28;19907;-68
2023/03/31 06:02:18;;;;;;;;;;;37.00;47.90;;;;;;5098728;28;20314;-69
2023/03/31 06:04:44;;;;;;;;;;;37.40;48.10;;;;;;5096155;28;19972;-68
2023/03/31 06:07:12;;;;;;;;;;;36.80;48.10;;;;;;5098535;28;19963;-67
2023/03/31 06:09:38;;;;;;;;;;;35.40;48.90;;;;;;5096623;28;19919;-68
2023/03/31 06:12:07;;;;;;;;;;;33.90;50.40;;;;;;5099386;28;19907;-68
2023/03/31 06:14:33;;;;;;;;;;;32.30;52.40;;;;;;5095748;28;19908;-68
2023/03/31 06:17:00;;;;;;;;;;;31.20;54.80;;;;;;5098974;28;19981;-67
2023/03/31 06:19:27;;;;;;;;;;;31.30;55.50;;;;;;5096446;28;19930;-68
2023/03/31 06:21:53;;;;;;;;;;;32.00;55.10;;;;;;5098512;28;19908;-67
2023/03/31 06:24:21;;;;;;;;;;;32.10;52.80;;;;;;5099427;28;19908;-67
2023/03/31 06:26:47;;;;;;;;;;;31.60;53.70;;;;;;5095858;28;20000;-66
2023/03/31 06:29:14;;;;;;;;;;;31.30;54.10;;;;;;5098516;28;19961;-68
2023/03/31 06:31:40;;;;;;;;;;;31.00;55.60;;;;;;5091920;28;19919;-67
2023/03/31 06:34:07;;;;;;;;;;;31.20;53.10;;;;;;5092913;28;19908;-66
2023/03/31 06:36:34;;;;;;;;;;;31.20;54.90;;;;;;5093521;28;19923;-68
2023/03/31 06:39:01;;;;;;;;;;;32.30;54.00;;;;;;5098402;28;19958;-68
2023/03/31 06:41:28;;;;;;;;;;;32.60;52.00;;;;;;5097921;28;19970;-69
2023/03/31 06:43:54;;;;;;;;;;;32.30;52.40;;;;;;5097938;28;20006;-67
2023/03/31 06:46:21;;;;;;;;;;;31.10;53.90;;;;;;5099069;28;19920;-66
2023/03/31 06:48:48;;;;;;;;;;;30.00;55.20;;;;;;5100177;28;20147;-68
2023/03/31 06:51:14;;;;;;;;;;;29.10;56.10;;;;;;5101289;27;19912;-68
2023/03/31 06:53:41;;;;;;;;;;;28.30;57.10;;;;;;5098914;28;19951;-66
2023/03/31 06:56:08;;;;;;;;;;;27.40;59.10;;;;;;5097152;27;19911;-69
2023/03/31 06:58:35;;;;;;;;;;;27.10;60.20;;;;;;5099747;28;19914;-68
2023/03/31 07:01:03;;;;;;;;;;;26.90;60.70;;;;;;5100521;28;19912;-71
2023/03/31 07:03:30;;;;;;;;;;;26.50;63.30;;;;;;5100567;28;20272;-69
2023/03/31 07:05:57;;;;;;;;;;;26.20;62.70;;;;;;5091982;28;19933;-68
2023/03/31 07:08:23;;;;;;;;;;;26.00;64.10;;;;;;5101764;28;19907;-68
2023/03/31 07:10:53;;;;;;;;;;;25.70;64.50;;;;;;5096570;28;19911;-69
2023/03/31 07:13:20;;;;;;;;;;;25.40;65.00;;;;;;5102053;28;19916;-69
2023/03/31 07:15:47;;;;;;;;;;;25.10;65.20;;;;;;5089123;27;19916;-69
2023/03/31 07:18:15;;;;;;;;;;;24.90;66.00;;;;;;5102598;28;19984;-68
2023/03/31 07:20:42;;;;;;;;;;;24.60;67.30;;;;;;5096068;28;19920;-68
2023/03/31 07:23:08;;;;;;;;;;;24.40;67.40;;;;;;5101582;28;20267;-68
2023/03/31 07:25:35;;;;;;;;;;;24.30;68.50;;;;;;5072647;28;19931;-69
2023/03/31 07:28:03;;;;;;;;;;;24.20;69.50;;;;;;5100563;28;19968;-68
2023/03/31 07:30:30;;;;;;;;;;;24.00;68.80;;;;;;5098832;28;19911;-68
2023/03/31 07:32:56;;;;;;;;;;;24.00;69.80;;;;;;5098106;28;20350;-68
2023/03/31 07:35:23;;;;;;;;;;;23.90;70.30;;;;;;5090351;27;20421;-69
2023/03/31 07:37:50;;;;;;;;;;;23.90;69.20;;;;;;5098994;28;20316;-69
2023/03/31 07:40:19;;;;;;;;;;;23.80;70.40;;;;;;5096543;28;19970;-68
2023/03/31 07:42:47;;;;;;;;;;;23.70;69.70;;;;;;5096281;28;19912;-69
2023/03/31 07:45:15;;;;;;;;;;;23.60;69.90;;;;;;5101111;27;20002;-67
2023/03/31 07:47:42;;;;;;;;;;;23.50;70.70;;;;;;5100646;28;19934;-70
2023/03/31 07:50:09;;;;;;;;;;;23.40;70.10;;;;;;5093435;27;20132;-67
2023/03/31 07:52:36;;;;;;;;;;;23.30;70.20;;;;;;5099951;28;19969;-69
2023/03/31 07:55:04;;;;;;;;;;;23.20;71.10;;;;;;5098368;28;19908;-66
2023/03/31 07:57:30;;;;;;;;;;;23.20;71.50;;;;;;5100770;28;19907;-70
2023/03/31 07:59:57;;;;;;;;;;;23.20;72.60;;;;;;5095133;28;20395;-68
2023/03/31 08:02:24;;;;;;;;;;;23.10;73.30;;;;;;5081429;28;19956;-67
2023/03/31 08:04:50;;;;;;;;;;;23.10;73.20;;;;;;5085989;28;19947;-68
2023/03/31 08:07:17;;;;;;;;;;;23.00;73.80;;;;;;5085436;28;20100;-68
2023/03/31 08:09:44;;;;;;;;;;;22.90;73.80;;;;;;5090217;28;20372;-68
2023/03/31 08:12:11;;;;;;;;;;;22.80;73.90;;;;;;5080449;28;19968;-68
2023/03/31 08:14:38;;;;;;;;;;;22.70;74.40;;;;;;5085192;28;20405;-69
2023/03/31 08:17:05;;;;;;;;;;;22.70;74.30;;;;;;5091662;27;19912;-68
2023/03/31 08:19:32;;;;;;;;;;;22.70;74.70;;;;;;5081603;28;19920;-69
2023/03/31 08:21:58;;;;;;;;;;;22.70;74.90;;;;;;5086393;28;19912;-67
2023/03/31 08:24:25;;;;;;;;;;;22.60;75.30;;;;;;5059883;28;19947;-68
2023/03/31 08:26:51;;;;;;;;;;;22.50;74.90;;;;;;5088533;28;20002;-68
2023/03/31 08:29:18;;;;;;;;;;;22.50;74.50;;;;;;5081009;28;19912;-70
2023/03/31 08:31:45;;;;;;;;;;;22.50;75.00;;;;;;5085498;28;19947;-68
2023/03/31 08:34:11;;;;;;;;;;;22.60;75.10;;;;;;5065364;28;19918;-69
2023/03/31 08:36:38;;;;;;;;;;;22.50;75.40;;;;;;5099047;27;19955;-69
2023/03/31 08:39:06;;;;;;;;;;;22.50;75.20;;;;;;5097381;28;19916;-68
2023/03/31 08:42:11;;;;;;;;;;;22.50;75.20;;;;;;5081682;28;20365;-69
2023/03/31 08:44:37;;;;;;;;;;;22.50;75.40;;;;;;5053810;28;19912;-69
2023/03/31 08:47:06;;;;;;;;;;;22.50;75.70;;;;;;5053193;28;19925;-68
2023/03/31 08:49:38;;;;;;;;;;;22.40;75.80;;;;;;5074903;28;20081;-69
2023/03/31 08:52:09;;;;;;;;;;;22.40;76.00;;;;;;5098456;27;19919;-67
2023/03/31 08:54:44;;;;;;;;;;;22.40;76.80;;;;;;5096915;28;19908;-68
2023/03/31 08:57:30;;;;;;;;;;;22.30;76.90;;;;;;5099809;28;19912;-69
2023/03/31 09:00:05;;;;;;;;;;;22.20;77.10;;;;;;5094409;28;19930;-68
2023/03/31 09:02:52;;;;;;;;;;;22.20;77.70;;;;;;5114078;27;19915;-70
2023/03/31 09:05:24;;;;;;;;;;;22.10;77.30;;;;;;5081885;28;19920;-69
2023/03/31 09:08:00;;;;;;;;;;;22.10;78.10;;;;;;5100774;27;19960;-68
2023/03/31 09:10:46;;;;;;;;;;;22.00;78.40;;;;;;5098686;27;19912;-68
2023/03/31 09:13:38;;;;;;;;;;;22.00;78.60;;;;;;5081142;28;20002;-68
2023/03/31 09:16:12;;;;;;;;;;;21.90;79.10;;;;;;5081231;28;19965;-68
2023/03/31 09:18:39;;;;;;;;;;;21.90;79.20;;;;;;5096797;28;19907;-68
2023/03/31 09:21:24;;;;;;;;;;;21.80;80.50;;;;;;5089086;28;19911;-66
2023/03/31 09:23:55;;;;;;;;;;;21.80;80.80;;;;;;5095736;28;19934;-68
2023/03/31 09:26:26;;;;;;;;;;;21.70;81.10;;;;;;5098270;28;20326;-70
2023/03/31 09:28:53;;;;;;;;;;;21.70;81.70;;;;;;5096851;28;19911;-69
2023/03/31 09:31:21;;;;;;;;;;;21.70;82.20;;;;;;5090395;28;19908;-67
2023/03/31 09:33:50;;;;;;;;;;;21.60;82.30;;;;;;5089111;28;19938;-68
2023/03/31 09:36:23;;;;;;;;;;;21.60;83.00;;;;;;5098377;28;19912;-68
2023/03/31 09:38:50;;;;;;;;;;;21.50;83.80;;;;;;5086835;28;19970;-68
2023/03/31 09:41:20;;;;;;;;;;;21.50;83.90;;;;;;5088097;28;19923;-69
2023/03/31 09:43:48;;;;;;;;;;;21.50;84.00;;;;;;5090521;28;20310;-68
2023/03/31 09:46:18;;;;;;;;;;;21.40;84.10;;;;;;5090005;28;19926;-67
2023/03/31 09:49:05;;;;;;;;;;;21.40;84.60;;;;;;5060604;28;20003;-69
2023/03/31 09:51:33;;;;;;;;;;;21.40;85.10;;;;;;5085033;28;20014;-69
2023/03/31 09:54:03;;;;;;;;;;;21.30;85.60;;;;;;5092713;28;19912;-69
2023/03/31 09:56:34;;;;;;;;;;;21.30;85.70;;;;;;5085843;28;20014;-69
2023/03/31 09:59:02;;;;;;;;;;;21.30;86.10;;;;;;5096032;28;19971;-69
2023/03/31 10:01:29;;;;;;;;;;;21.30;86.30;;;;;;5085568;28;19912;-69
2023/03/31 10:03:57;;;;;;;;;;;21.30;86.90;;;;;;5094211;28;19911;-68
2023/03/31 10:06:24;;;;;;;;;;;21.30;87.20;;;;;;5095882;28;19919;-68
2023/03/31 10:08:55;;;;;;;;;;;21.30;88.00;;;;;;5084343;28;20598;-69
2023/03/31 10:11:22;;;;;;;;;;;21.40;87.70;;;;;;5082492;28;20014;-69
2023/03/31 10:13:52;;;;;;;;;;;21.30;87.40;;;;;;5088103;28;19912;-68
2023/03/31 10:16:30;;;;;;;;;;;21.20;87.30;;;;;;5084535;28;19955;-68
2023/03/31 10:19:12;;;;;;;;;;;21.30;88.00;;;;;;5089865;28;21413;-67
2023/03/31 10:21:39;;;;;;;;;;;21.30;87.90;;;;;;5087627;28;20036;-70
2023/03/31 10:24:09;;;;;;;;;;;21.30;88.30;;;;;;5084879;28;20364;-68
2023/03/31 10:26:36;;;;;;;;;;;21.30;87.70;;;;;;5100902;27;20038;-68
2023/03/31 10:29:09;;;;;;;;;;;21.30;88.30;;;;;;5091599;28;19912;-69
2023/03/31 10:31:37;;;;;;;;;;;21.40;88.30;;;;;;5091543;28;19923;-69
2023/03/31 10:34:08;;;;;;;;;;;21.30;88.50;;;;;;5078549;28;19919;-68
2023/03/31 10:36:35;;;;;;;;;;;21.30;88.80;;;;;;5102030;27;19915;-68
2023/03/31 10:39:04;;;;;;;;;;;21.30;88.80;;;;;;5089355;28;19963;-69
2023/03/31 10:41:32;;;;;;;;;;;21.30;89.20;;;;;;5087039;27;19957;-69
2023/03/31 10:44:00;;;;;;;;;;;21.20;89.10;;;;;;5090392;28;20621;-68
2023/03/31 10:46:50;;;;;;;;;;;21.20;89.90;;;;;;5084902;27;19920;-67
2023/03/31 10:49:22;;;;;;;;;;;21.20;89.50;;;;;;5086530;28;19961;-69
2023/03/31 10:51:51;;;;;;;;;;;21.20;89.70;;;;;;5087261;27;19919;-69
2023/03/31 10:54:18;;;;;;;;;;;21.20;89.70;;;;;;5088306;28;19912;-69
2023/03/31 10:56:46;;;;;;;;;;;21.20;90.20;;;;;;5085732;28;19915;-70
2023/03/31 10:59:31;;;;;;;;;;;21.10;90.00;;;;;;5083863;28;19915;-70
2023/03/31 11:02:04;;;;;;;;;;;21.10;89.70;;;;;;5085741;27;19912;-69
2023/03/31 11:04:39;;;;;;;;;;;21.10;90.00;;;;;;5095406;28;20368;-69
2023/03/31 11:07:11;;;;;;;;;;;21.10;88.00;;;;;;5098295;28;20322;-68
2023/03/31 11:09:56;;;;;;;;;;;21.10;87.80;;;;;;5097933;28;20368;-69
2023/03/31 11:12:32;;;;;;;;;;;21.10;88.90;;;;;;5100703;28;19927;-68
2023/03/31 11:15:24;;;;;;;;;;;21.20;89.10;;;;;;5093695;28;19912;-67
2023/03/31 11:18:09;;;;;;;;;;;21.20;87.20;;;;;;5092921;27;20002;-68
2023/03/31 11:20:54;;;;;;;;;;;21.20;87.90;;;;;;5093656;28;19916;-68
2023/03/31 11:23:36;;;;;;;;;;;21.20;87.20;;;;;;5096309;28;19912;-70
2023/03/31 11:26:06;;;;;;;;;;;21.10;86.40;;;;;;5093122;28;20396;-69
2023/03/31 11:28:38;;;;;;;;;;;21.20;87.00;;;;;;5099566;28;20644;-69
2023/03/31 11:31:14;;;;;;;;;;;21.10;86.10;;;;;;5100580;28;20289;-68
2023/03/31 11:34:00;;;;;;;;;;;21.10;86.30;;;;;;5100309;28;19919;-69
2023/03/31 11:36:27;;;;;;;;;;;21.10;86.10;;;;;;5094441;27;20245;-69
2023/03/31 11:39:12;;;;;;;;;;;21.20;86.10;;;;;;5101066;28;19927;-69
2023/03/31 11:41:44;;;;;;;;;;;21.10;86.10;;;;;;5098149;28;19908;-69
2023/03/31 11:44:13;;;;;;;;;;;21.10;86.20;;;;;;5097493;28;19912;-69
2023/03/31 11:47:00;;;;;;;;;;;21.00;86.40;;;;;;5098741;28;19920;-70
2023/03/31 11:49:26;;;;;;;;;;;21.00;86.90;;;;;;5078869;28;19985;-69
2023/03/31 11:51:53;;;;;;;;;;;20.90;87.40;;;;;;5092103;28;19919;-69
2023/03/31 11:54:27;;;;;;;;;;;20.90;88.00;;;;;;5082722;28;20748;-69
2023/03/31 11:56:55;;;;;;;;;;;20.90;87.90;;;;;;5084380;27;19912;-69
2023/03/31 11:59:26;;;;;;;;;;;20.90;88.20;;;;;;5083631;28;19920;-69
2023/03/31 12:02:11;;;;;;;;;;;20.70;88.00;;;;;;5084708;27;20418;-68
2023/03/31 12:04:43;;;;;;;;;;;20.70;88.30;;;;;;5091385;28;20757;-69
2023/03/31 12:07:12;;;;;;;;;;;20.60;88.80;;;;;;5086090;28;19920;-68
2023/03/31 12:09:39;;;;;;;;;;;20.60;87.80;;;;;;5094618;28;19911;-68
2023/03/31 12:12:23;;;;;;;;;;;20.50;88.30;;;;;;5085326;28;19911;-67
2023/03/31 12:15:02;;;;;;;;;;;20.60;88.50;;;;;;5082819;28;20009;-69
2023/03/31 12:17:29;;;;;;;;;;;20.60;86.20;;;;;;5096832;28;19915;-68
2023/03/31 12:20:09;;;;;;;;;;;20.50;87.40;;;;;;5076923;28;19912;-69
2023/03/31 12:22:41;;;;;;;;;;;20.50;86.30;;;;;;5085446;27;19916;-68
2023/03/31 12:25:15;;;;;;;;;;;20.50;86.30;;;;;;5090596;28;20272;-69
2023/03/31 12:27:43;;;;;;;;;;;20.50;85.70;;;;;;5076529;28;19920;-68
2023/03/31 12:30:12;;;;;;;;;;;20.50;85.00;;;;;;5078880;28;19908;-69
2023/03/31 12:33:05;;;;;;;;;;;20.40;85.40;;;;;;5079734;28;20407;-69
2023/03/31 12:35:41;;;;;;;;;;;20.40;84.60;;;;;;5075962;28;19908;-68
2023/03/31 12:38:23;;;;;;;;;;;20.40;84.10;;;;;;5080053;28;19908;-70
2023/03/31 12:40:56;;;;;;;;;;;20.30;84.10;;;;;;5078575;28;20693;-69
2023/03/31 12:43:29;;;;;;;;;;;20.30;85.00;;;;;;5079363;28;19908;-70
2023/03/31 12:46:04;;;;;;;;;;;20.20;84.70;;;;;;5079383;28;19916;-70
2023/03/31 12:48:49;;;;;;;;;;;20.10;85.50;;;;;;5077657;28;19912;-69
2023/03/31 12:51:25;;;;;;;;;;;20.00;85.90;;;;;;5079600;28;20007;-70
2023/03/31 12:53:57;;;;;;;;;;;20.00;86.30;;;;;;5078691;28;19962;-69
2023/03/31 12:56:24;;;;;;;;;;;19.90;86.10;;;;;;5079370;28;19962;-70
2023/03/31 12:58:51;;;;;;;;;;;19.90;85.70;;;;;;5078595;28;19962;-69
2023/03/31 13:01:17;;;;;;;;;;;19.90;86.20;;;;;;5079044;28;20000;-70
2023/03/31 13:03:46;;;;;;;;;;;19.80;86.40;;;;;;5079364;28;20403;-71
2023/03/31 13:06:25;;;;;;;;;;;19.80;86.50;;;;;;5079382;28;19916;-70
2023/03/31 13:08:53;;;;;;;;;;;19.70;86.80;;;;;;5077380;28;19915;-70
2023/03/31 13:11:21;;;;;;;;;;;19.60;87.70;;;;;;5079656;28;19912;-69
2023/03/31 13:14:11;;;;;;;;;;;19.60;87.50;;;;;;5091844;28;19943;-68
2023/03/31 13:16:38;;;;;;;;;;;19.60;87.70;;;;;;5091072;28;19912;-68
2023/03/31 13:19:04;;;;;;;;;;;19.50;85.90;;;;;;5097232;28;19908;-68
2023/03/31 13:21:31;;;;;;;;;;;19.50;86.80;;;;;;5099288;28;19952;-67
2023/03/31 13:24:01;;;;;;;;;;;19.50;87.60;;;;;;5097558;28;19918;-68
2023/03/31 13:26:39;;;;;;;;;;;19.50;87.10;;;;;;5097661;28;20412;-68
2023/03/31 13:29:11;;;;;;;;;;;19.40;86.20;;;;;;5082403;28;19912;-69
2023/03/31 13:31:55;;;;;;;;;;;19.40;86.60;;;;;;5099097;28;19950;-69
2023/03/31 13:34:22;;;;;;;;;;;19.40;87.30;;;;;;5098563;28;19908;-70
2023/03/31 13:36:49;;;;;;;;;;;19.40;87.90;;;;;;5098964;28;19968;-68
2023/03/31 13:39:34;;;;;;;;;;;19.30;87.20;;;;;;5098472;28;19924;-69
2023/03/31 13:42:26;;;;;;;;;;;19.30;86.90;;;;;;5097823;28;20367;-67
2023/03/31 13:45:07;;;;;;;;;;;19.30;86.70;;;;;;5097096;28;19995;-70
2023/03/31 13:47:53;;;;;;;;;;;19.30;86.10;;;;;;5098479;28;20012;-67
2023/03/31 13:50:28;;;;;;;;;;;19.20;86.30;;;;;;5097200;28;19911;-68
2023/03/31 13:53:13;;;;;;;;;;;19.20;85.90;;;;;;5097623;28;19908;-69
2023/03/31 13:55:45;;;;;;;;;;;19.20;86.50;;;;;;5098764;28;19908;-68
2023/03/31 13:58:22;;;;;;;;;;;19.20;86.20;;;;;;5096150;28;19907;-69
2023/03/31 14:00:57;;;;;;;;;;;19.20;86.60;;;;;;5099114;28;19908;-69
2023/03/31 14:03:47;;;;;;;;;;;19.10;85.50;;;;;;5096216;28;20386;-69
2023/03/31 14:06:16;;;;;;;;;;;19.10;85.00;;;;;;5088903;28;20283;-70
2023/03/31 14:09:06;;;;;;;;;;;19.10;85.40;;;;;;5098020;28;20666;-70
2023/03/31 14:11:33;;;;;;;;;;;19.10;86.00;;;;;;5096344;28;19908;-68
2023/03/31 14:14:14;;;;;;;;;;;19.20;86.70;;;;;;5080891;28;19952;-70
2023/03/31 14:16:45;;;;;;;;;;;19.00;86.10;;;;;;5098202;28;20261;-68
2023/03/31 14:19:17;;;;;;;;;;;19.00;87.10;;;;;;5098609;28;19908;-68
2023/03/31 14:22:07;;;;;;;;;;;19.00;86.60;;;;;;5098659;28;19907;-68
2023/03/31 14:24:41;;;;;;;;;;;19.00;87.10;;;;;;5087855;28;19964;-69
2023/03/31 14:27:17;;;;;;;;;;;19.00;87.20;;;;;;5097440;28;19931;-69
2023/03/31 14:29:44;;;;;;;;;;;18.90;87.10;;;;;;5098358;28;19990;-70
2023/03/31 14:32:17;;;;;;;;;;;18.90;88.70;;;;;;5098808;28;19989;-70
2023/03/31 14:34:44;;;;;;;;;;;18.80;88.40;;;;;;5088457;28;19912;-69
2023/03/31 14:37:12;;;;;;;;;;;18.80;89.40;;;;;;5078707;28;20280;-69
2023/03/31 14:39:42;;;;;;;;;;;18.70;88.70;;;;;;5075371;28;19920;-69